createdAt,value
2017-11-30T00:02:26.353Z,1.89
2017-11-30T00:04:53.504Z,1.89
2017-11-30T00:07:19.939Z,1.87
2017-11-30T00:09:46.374Z,1.88
2017-11-30T00:12:12.808Z,1.78
2017-11-30T00:14:39.250Z,1.74
2017-11-30T00:17:05.679Z,1.85
2017-11-30T00:19:32.112Z,2.06
2017-11-30T00:21:59.264Z,2.18
2017-11-30T00:24:25.699Z,2.19
2017-11-30T00:26:52.134Z,2.18
2017-11-30T00:29:18.567Z,2.32
2017-11-30T00:31:45.001Z,2.50
2017-11-30T00:34:11.437Z,2.62
2017-11-30T00:36:37.871Z,2.54
2017-11-30T00:39:05.001Z,2.49
2017-11-30T00:41:31.443Z,2.48
2017-11-30T00:43:57.886Z,2.44
2017-11-30T00:46:24.325Z,2.35
2017-11-30T00:48:50.760Z,2.19
2017-11-30T00:51:17.195Z,2.17
2017-11-30T00:53:43.629Z,2.22
2017-11-30T00:56:10.886Z,2.23
2017-11-30T00:58:37.318Z,2.29
2017-11-30T01:01:03.753Z,2.32
2017-11-30T01:03:30.148Z,2.35
2017-11-30T01:05:56.612Z,2.45
2017-11-30T01:08:23.057Z,2.54
2017-11-30T01:10:49.594Z,2.63
2017-11-30T01:13:16.745Z,2.81
2017-11-30T01:15:43.186Z,2.88
2017-11-30T01:18:09.615Z,2.91
2017-11-30T01:20:36.050Z,3.08
2017-11-30T01:23:02.444Z,3.19
2017-11-30T01:25:28.818Z,3.16
2017-11-30T01:27:55.253Z,3.22
2017-11-30T01:30:22.404Z,3.26
2017-11-30T01:32:48.838Z,3.29
2017-11-30T01:35:15.281Z,3.23
2017-11-30T01:37:41.704Z,3.07
2017-11-30T01:40:08.148Z,3.04
2017-11-30T01:42:34.574Z,3.08
2017-11-30T01:45:01.010Z,3.13
2017-11-30T01:47:28.162Z,3.20
2017-11-30T01:49:54.594Z,3.24
2017-11-30T01:52:21.029Z,3.23
2017-11-30T01:54:47.463Z,3.26
2017-11-30T01:57:13.898Z,3.23
2017-11-30T01:59:40.435Z,3.37
2017-11-30T02:02:06.871Z,3.52
2017-11-30T02:04:34.125Z,3.71
2017-11-30T02:07:00.558Z,3.88
2017-11-30T02:09:26.993Z,4.08
2017-11-30T02:11:53.429Z,4.21
2017-11-30T02:14:19.863Z,4.32
2017-11-30T02:16:46.295Z,4.46
2017-11-30T02:19:12.733Z,4.54
2017-11-30T02:21:39.882Z,4.66
2017-11-30T02:24:06.316Z,4.73
2017-11-30T02:26:32.751Z,4.73
2017-11-30T02:28:59.190Z,4.78
2017-11-30T02:31:25.621Z,4.75
2017-11-30T02:33:52.054Z,4.78
2017-11-30T02:36:18.490Z,4.86
2017-11-30T02:38:45.743Z,4.86
2017-11-30T02:41:12.141Z,4.88
2017-11-30T02:43:38.612Z,4.93
2017-11-30T02:46:05.048Z,5.01
2017-11-30T02:48:31.583Z,4.98
2017-11-30T02:50:58.019Z,4.96
2017-11-30T02:53:24.455Z,4.97
2017-11-30T02:55:51.602Z,4.91
2017-11-30T02:58:18.019Z,4.89
2017-11-30T03:00:44.461Z,4.88
2017-11-30T03:03:10.909Z,4.90
2017-11-30T03:05:37.343Z,4.94
2017-11-30T03:08:03.777Z,4.94
2017-11-30T03:10:30.211Z,5.01
2017-11-30T03:12:57.368Z,5.00
2017-11-30T03:15:23.800Z,4.99
2017-11-30T03:17:50.232Z,5.03
2017-11-30T03:20:16.666Z,5.10
2017-11-30T03:22:43.101Z,5.13
2017-11-30T03:25:09.536Z,5.13
2017-11-30T03:27:35.970Z,5.17
2017-11-30T03:30:03.129Z,5.22
2017-11-30T03:32:29.558Z,5.23
2017-11-30T03:34:55.992Z,5.26
2017-11-30T03:37:22.431Z,5.27
2017-11-30T03:39:48.860Z,5.28
2017-11-30T03:42:15.297Z,5.26
2017-11-30T03:44:41.730Z,5.29
2017-11-30T03:47:08.882Z,5.32
2017-11-30T03:49:35.316Z,5.33
2017-11-30T03:52:01.751Z,5.36
2017-11-30T03:54:28.140Z,5.49
2017-11-30T03:56:54.702Z,5.63
2017-11-30T03:59:21.146Z,5.75
2017-11-30T04:01:47.587Z,5.86
2017-11-30T04:04:14.741Z,6.00
2017-11-30T04:06:41.178Z,6.05
2017-11-30T04:09:07.614Z,6.10
2017-11-30T04:11:34.045Z,6.17
2017-11-30T04:14:00.594Z,6.22
2017-11-30T04:16:27.015Z,6.28
2017-11-30T04:18:53.433Z,6.31
2017-11-30T04:21:20.698Z,6.38
2017-11-30T04:23:47.140Z,6.42
2017-11-30T04:26:13.574Z,6.56
2017-11-30T04:28:40.009Z,6.66
2017-11-30T04:31:06.443Z,6.68
2017-11-30T04:33:32.878Z,6.67
2017-11-30T04:35:59.312Z,6.71
2017-11-30T04:38:26.566Z,6.84
2017-11-30T04:40:53.002Z,6.88
2017-11-30T04:43:19.526Z,6.95
2017-11-30T04:45:45.969Z,7.01
2017-11-30T04:48:12.407Z,7.02
2017-11-30T04:50:38.843Z,7.18
2017-11-30T04:53:05.276Z,7.20
2017-11-30T04:55:32.428Z,7.25
2017-11-30T04:57:58.861Z,7.30
2017-11-30T05:00:25.296Z,7.38
2017-11-30T05:02:51.732Z,7.44
2017-11-30T05:05:18.124Z,7.44
2017-11-30T05:07:44.600Z,7.47
2017-11-30T05:10:11.037Z,7.51
2017-11-30T05:12:38.290Z,7.50
2017-11-30T05:15:04.724Z,7.55
2017-11-30T05:17:31.291Z,7.74
2017-11-30T05:19:57.784Z,7.77
2017-11-30T05:22:24.186Z,7.78
2017-11-30T05:24:50.666Z,7.84
2017-11-30T05:27:17.100Z,7.87
2017-11-30T05:29:44.252Z,7.93
2017-11-30T05:32:10.694Z,8.04
2017-11-30T05:34:37.121Z,8.11
2017-11-30T05:37:03.556Z,8.14
2017-11-30T05:39:29.991Z,8.16
2017-11-30T05:41:56.425Z,8.19
2017-11-30T05:44:22.859Z,8.21
2017-11-30T05:46:50.011Z,8.19
2017-11-30T05:49:16.446Z,8.21
2017-11-30T05:51:42.880Z,8.25
2017-11-30T05:54:09.299Z,8.42
2017-11-30T05:56:35.747Z,8.56
2017-11-30T05:59:02.185Z,8.56
2017-11-30T06:01:28.618Z,8.63
2017-11-30T06:03:55.771Z,8.65
2017-11-30T06:06:22.203Z,8.66
2017-11-30T06:08:48.844Z,8.76
2017-11-30T06:11:15.585Z,8.82
2017-11-30T06:13:42.021Z,8.84
2017-11-30T06:16:08.455Z,8.87
2017-11-30T06:18:35.813Z,8.95
2017-11-30T06:21:02.247Z,8.96
2017-11-30T06:23:28.680Z,8.99
2017-11-30T06:25:55.217Z,9.09
2017-11-30T06:28:21.656Z,9.04
2017-11-30T06:30:48.148Z,9.04
2017-11-30T06:33:14.625Z,9.16
2017-11-30T06:35:41.161Z,9.21
2017-11-30T06:38:08.211Z,9.24
2017-11-30T06:40:34.627Z,9.30
2017-11-30T06:43:01.072Z,9.30
2017-11-30T06:45:27.819Z,9.35
2017-11-30T06:47:54.254Z,9.43
2017-11-30T06:50:20.689Z,9.48
2017-11-30T06:52:47.226Z,9.58
2017-11-30T06:55:13.763Z,9.61
2017-11-30T06:57:40.812Z,9.74
2017-11-30T07:00:07.247Z,9.81
2017-11-30T07:02:33.681Z,9.93
2017-11-30T07:05:00.075Z,9.98
2017-11-30T07:07:27.266Z,9.86
2017-11-30T07:09:53.737Z,9.86
2017-11-30T07:12:20.242Z,9.87
2017-11-30T07:14:46.676Z,9.87
2017-11-30T07:17:13.618Z,9.91
2017-11-30T07:19:40.069Z,9.89
2017-11-30T07:22:09.908Z,9.89
2017-11-30T07:24:36.609Z,9.96
2017-11-30T07:27:03.043Z,9.92
2017-11-30T07:29:29.478Z,9.99
2017-11-30T07:31:55.912Z,10.10
2017-11-30T07:34:22.308Z,10.14
2017-11-30T07:36:48.782Z,10.18
2017-11-30T07:39:15.217Z,10.25
2017-11-30T07:41:41.654Z,10.34
2017-11-30T07:44:08.356Z,10.38
2017-11-30T07:46:35.038Z,10.48
2017-11-30T07:49:01.888Z,10.56
2017-11-30T07:51:28.275Z,10.63
2017-11-30T07:53:55.564Z,10.71
2017-11-30T07:56:21.999Z,10.81
2017-11-30T07:58:48.539Z,10.87
2017-11-30T08:01:15.995Z,10.90
2017-11-30T08:03:42.491Z,10.95
2017-11-30T08:06:08.966Z,10.95
2017-11-30T08:08:35.400Z,11.05
2017-11-30T08:11:02.145Z,11.02
2017-11-30T08:13:29.193Z,11.00
2017-11-30T08:15:56.931Z,11.02
2017-11-30T08:18:23.889Z,11.12
2017-11-30T08:20:50.851Z,11.17
2017-11-30T08:23:17.285Z,11.22
2017-11-30T08:25:44.335Z,11.27
2017-11-30T08:28:10.769Z,11.28
2017-11-30T08:30:37.305Z,11.29
2017-11-30T08:33:04.252Z,11.45
2017-11-30T08:35:30.801Z,11.52
2017-11-30T08:37:57.326Z,11.62
2017-11-30T08:40:24.067Z,11.76
2017-11-30T08:42:50.505Z,11.66
2017-11-30T08:45:17.042Z,11.79
2017-11-30T08:47:43.986Z,11.92
2017-11-30T08:50:11.240Z,11.97
2017-11-30T08:52:37.778Z,12.03
2017-11-30T08:55:04.519Z,12.11
2017-11-30T08:57:31.055Z,12.16
2017-11-30T08:59:58.930Z,12.15
2017-11-30T09:02:25.871Z,12.17
2017-11-30T09:04:52.367Z,12.23
2017-11-30T09:07:18.945Z,12.25
2017-11-30T09:09:45.995Z,12.37
2017-11-30T09:12:12.535Z,12.41
2017-11-30T09:14:39.067Z,12.43
2017-11-30T09:17:06.006Z,12.53
2017-11-30T09:19:32.449Z,12.57
2017-11-30T09:21:58.985Z,12.53
2017-11-30T09:24:25.526Z,12.55
2017-11-30T09:26:52.060Z,12.57
2017-11-30T09:29:18.498Z,12.61
2017-11-30T09:31:45.338Z,12.66
2017-11-30T09:34:11.878Z,12.73
2017-11-30T09:36:38.412Z,12.84
2017-11-30T09:39:05.359Z,12.72
2017-11-30T09:41:32.263Z,12.70
2017-11-30T09:43:58.741Z,12.73
2017-11-30T09:46:25.483Z,12.69
2017-11-30T09:48:52.088Z,12.65
2017-11-30T09:51:18.660Z,12.54
2017-11-30T09:53:45.297Z,12.63
2017-11-30T09:56:11.838Z,12.53
2017-11-30T09:58:38.371Z,12.45
2017-11-30T10:01:05.115Z,12.45
2017-11-30T10:03:31.755Z,12.56
2017-11-30T10:05:58.395Z,12.70
2017-11-30T10:08:25.031Z,12.92
2017-11-30T10:10:51.569Z,13.03
2017-11-30T10:13:18.063Z,13.16
2017-11-30T10:15:44.846Z,13.22
2017-11-30T10:18:11.654Z,13.42
2017-11-30T10:20:38.228Z,13.40
2017-11-30T10:23:05.292Z,13.40
2017-11-30T10:25:31.822Z,13.39
2017-11-30T10:27:58.352Z,13.44
2017-11-30T10:30:24.990Z,13.46
2017-11-30T10:32:51.526Z,13.44
2017-11-30T10:35:18.078Z,13.50
2017-11-30T10:37:44.704Z,13.59
2017-11-30T10:40:11.246Z,13.61
2017-11-30T10:42:37.783Z,13.70
2017-11-30T10:45:04.519Z,13.66
2017-11-30T10:47:31.057Z,13.56
2017-11-30T10:49:57.593Z,13.51
2017-11-30T10:52:24.232Z,13.56
2017-11-30T10:54:50.770Z,13.41
2017-11-30T10:57:17.307Z,13.34
2017-11-30T10:59:44.457Z,13.32
2017-11-30T11:02:10.998Z,13.31
2017-11-30T11:04:37.530Z,13.34
2017-11-30T11:07:04.478Z,13.44
2017-11-30T11:09:31.016Z,13.39
2017-11-30T11:11:57.553Z,13.32
2017-11-30T11:14:24.400Z,13.32
2017-11-30T11:16:50.934Z,13.25
2017-11-30T11:19:17.470Z,13.24
2017-11-30T11:21:44.464Z,13.19
2017-11-30T11:24:10.935Z,13.08
2017-11-30T11:26:37.602Z,13.05
2017-11-30T11:29:04.443Z,13.02
2017-11-30T11:31:30.974Z,13.07
2017-11-30T11:33:57.502Z,13.18
2017-11-30T11:36:24.358Z,13.17
2017-11-30T11:38:51.568Z,13.14
2017-11-30T11:41:20.992Z,13.18
2017-11-30T11:43:47.756Z,13.17
2017-11-30T11:46:14.292Z,13.09
2017-11-30T11:48:40.833Z,13.08
2017-11-30T11:51:07.572Z,13.15
2017-11-30T11:53:36.018Z,13.11
2017-11-30T11:56:02.492Z,13.09
2017-11-30T11:58:29.128Z,13.10
2017-11-30T12:00:55.664Z,13.09
2017-11-30T12:03:22.163Z,13.15
2017-11-30T12:05:48.841Z,13.11
2017-11-30T12:08:15.377Z,12.98
2017-11-30T12:10:41.915Z,12.88
2017-11-30T12:13:08.572Z,13.01
2017-11-30T12:15:35.093Z,13.13
2017-11-30T12:18:01.629Z,13.18
2017-11-30T12:20:28.580Z,13.27
2017-11-30T12:22:55.016Z,13.36
2017-11-30T12:25:21.444Z,13.49
2017-11-30T12:27:48.188Z,13.60
2017-11-30T12:30:14.623Z,13.61
2017-11-30T12:32:41.058Z,13.66
2017-11-30T12:35:07.490Z,13.65
2017-11-30T12:37:34.235Z,13.69
2017-11-30T12:40:00.674Z,13.65
2017-11-30T12:42:27.204Z,13.66
2017-11-30T12:44:54.089Z,13.71
2017-11-30T12:47:20.686Z,13.61
2017-11-30T12:49:47.121Z,13.58
2017-11-30T12:52:14.004Z,13.59
2017-11-30T12:54:40.501Z,13.56
2017-11-30T12:59:33.857Z,13.64
2017-11-30T13:02:00.216Z,13.61
2017-11-30T13:04:27.492Z,13.65
2017-11-30T13:06:54.515Z,13.67
2017-11-30T13:09:20.951Z,13.60
2017-11-30T13:11:47.387Z,13.65
2017-11-30T13:14:14.014Z,13.62
2017-11-30T13:16:40.429Z,13.63
2017-11-30T13:19:06.996Z,13.58
2017-11-30T13:21:33.840Z,13.56
2017-11-30T13:24:00.377Z,13.67
2017-11-30T13:26:27.022Z,13.74
2017-11-30T13:28:53.804Z,13.75
2017-11-30T13:31:20.500Z,14.01
2017-11-30T13:33:46.934Z,14.13
2017-11-30T13:36:13.882Z,14.15
2017-11-30T13:38:40.521Z,14.26
2017-11-30T13:41:07.162Z,14.29
2017-11-30T13:43:33.871Z,14.43
2017-11-30T13:46:00.442Z,14.46
2017-11-30T13:48:26.976Z,14.28
2017-11-30T13:50:53.924Z,14.06
2017-11-30T13:53:20.544Z,14.15
2017-11-30T13:55:47.100Z,14.19
2017-11-30T13:58:13.534Z,14.10
2017-11-30T14:00:40.275Z,14.11
2017-11-30T14:03:06.711Z,14.19
2017-11-30T14:05:33.087Z,14.25
2017-11-30T14:07:59.784Z,14.27
2017-11-30T14:10:26.219Z,14.34
2017-11-30T14:12:52.653Z,14.39
2017-11-30T14:15:19.339Z,14.34
2017-11-30T14:17:45.933Z,14.40
2017-11-30T14:20:12.809Z,14.42
2017-11-30T14:22:39.862Z,14.45
2017-11-30T14:25:06.753Z,14.44
2017-11-30T14:27:33.534Z,14.51
2017-11-30T14:30:00.226Z,14.63
2017-11-30T14:32:26.868Z,14.62
2017-11-30T14:34:53.329Z,14.66
2017-11-30T14:37:20.379Z,14.68
2017-11-30T14:39:47.121Z,14.74
2017-11-30T14:42:13.696Z,14.98
2017-11-30T14:44:41.235Z,15.02
2017-11-30T14:47:07.823Z,15.05
2017-11-30T14:49:34.301Z,15.15
2017-11-30T14:52:00.978Z,15.19
2017-11-30T14:54:27.449Z,15.22
2017-11-30T14:56:53.902Z,15.29
2017-11-30T14:59:20.850Z,15.17
2017-11-30T15:01:47.285Z,15.40
2017-11-30T15:04:13.821Z,15.33
2017-11-30T15:06:40.565Z,15.38
2017-11-30T15:09:07.905Z,15.32
2017-11-30T15:11:34.363Z,15.38
2017-11-30T15:14:00.993Z,15.48
2017-11-30T15:16:27.428Z,15.58
2017-11-30T15:18:54.477Z,15.48
2017-11-30T15:21:21.322Z,15.48
2017-11-30T15:23:48.133Z,15.49
2017-11-30T15:26:14.600Z,15.46
2017-11-30T15:28:41.444Z,15.51
2017-11-30T15:31:08.293Z,15.56
2017-11-30T15:33:34.927Z,15.89
2017-11-30T15:36:01.812Z,15.84
2017-11-30T15:38:28.411Z,15.93
2017-11-30T15:43:26.875Z,15.93
2017-11-30T15:45:53.317Z,16.08
2017-11-30T15:48:20.195Z,16.10
2017-11-30T15:50:46.652Z,16.08
2017-11-30T15:53:13.061Z,15.98
2017-11-30T15:55:39.813Z,16.01
2017-11-30T15:58:07.322Z,15.89
2017-11-30T16:00:33.758Z,15.94
2017-11-30T16:03:00.192Z,16.00
2017-11-30T16:05:26.555Z,15.91
2017-11-30T16:10:24.922Z,15.95
2017-11-30T16:12:51.284Z,15.95
2017-11-30T16:15:17.795Z,15.95
2017-11-30T16:17:44.229Z,15.89
2017-11-30T16:20:10.610Z,15.92
2017-11-30T16:22:37.136Z,15.87
2017-11-30T16:25:03.636Z,15.88
2017-11-30T16:27:30.513Z,15.80
2017-11-30T16:29:56.911Z,15.72
2017-11-30T16:32:23.602Z,15.81
2017-11-30T16:49:58.545Z,15.78
2017-11-30T16:52:24.880Z,15.82
2017-11-30T16:54:51.313Z,15.85
2017-11-30T16:57:17.747Z,15.85
2017-11-30T16:59:44.201Z,15.87
2017-11-30T17:02:10.515Z,15.82
2017-11-30T17:04:37.050Z,15.82
2017-11-30T17:07:03.499Z,15.82
2017-11-30T17:09:29.920Z,15.83
2017-11-30T17:11:56.376Z,15.88
2017-11-30T17:14:22.788Z,15.86
2017-11-30T17:16:49.224Z,15.73
2017-11-30T17:19:15.660Z,15.82
2017-11-30T17:21:42.093Z,15.83
2017-11-30T17:24:08.529Z,15.76
2017-11-30T17:26:34.967Z,15.79
2017-11-30T17:29:01.398Z,15.83
2017-11-30T17:31:27.729Z,15.83
2017-11-30T17:33:54.267Z,15.86
2017-11-30T17:36:20.700Z,15.85
2017-11-30T17:38:47.136Z,15.90
2017-11-30T17:41:13.571Z,15.85
2017-11-30T17:43:40.013Z,15.79
2017-11-30T17:46:06.440Z,15.89
2017-11-30T17:48:32.894Z,15.81
2017-11-30T17:50:59.308Z,15.82
2017-11-30T17:53:25.742Z,15.73
2017-11-30T17:55:52.177Z,15.78
2017-11-30T17:58:19.307Z,15.89
2017-11-30T18:00:45.665Z,15.89
2017-11-30T18:03:12.098Z,15.89
2017-11-30T18:05:38.532Z,16.01
2017-11-30T18:08:04.966Z,16.09
2017-11-30T18:10:31.401Z,16.15
2017-11-30T18:12:57.836Z,16.14
2017-11-30T18:15:24.986Z,16.14
2017-11-30T18:17:51.320Z,16.23
2017-11-30T18:20:17.740Z,16.16
2017-11-30T18:22:44.120Z,16.22
2017-11-30T18:25:10.475Z,16.25
2017-11-30T18:27:36.946Z,16.34
2017-11-30T18:30:03.359Z,16.43
2017-11-30T18:32:30.641Z,16.32
2017-11-30T18:34:57.077Z,16.29
2017-11-30T18:37:23.442Z,16.15
2017-11-30T18:39:49.780Z,16.09
2017-11-30T18:42:16.176Z,16.13
2017-11-30T18:44:42.507Z,16.32
2017-11-30T18:47:08.874Z,16.20
2017-11-30T18:49:36.094Z,16.21
2017-11-30T18:52:02.528Z,16.16
2017-11-30T18:54:28.962Z,16.22
2017-11-30T18:56:55.398Z,16.24
2017-11-30T18:59:21.831Z,16.30
2017-11-30T19:01:48.268Z,16.34
2017-11-30T19:04:14.703Z,16.35
2017-11-30T19:06:41.947Z,16.21
2017-11-30T19:09:08.390Z,16.21
2017-11-30T19:11:34.789Z,16.29
2017-11-30T19:14:01.275Z,16.35
2017-11-30T19:16:27.694Z,16.43
2017-11-30T19:18:54.128Z,16.39
2017-11-30T19:21:20.500Z,16.26
2017-11-30T19:23:47.830Z,16.47
2017-11-30T19:26:14.252Z,16.37
2017-11-30T19:28:40.686Z,16.38
2017-11-30T19:31:07.120Z,16.35
2017-11-30T19:33:33.553Z,16.36
2017-11-30T19:35:59.995Z,16.34
2017-11-30T19:38:26.524Z,16.31
2017-11-30T19:40:53.565Z,16.30
2017-11-30T19:43:19.943Z,16.31
2017-11-30T19:45:46.342Z,16.29
2017-11-30T19:48:12.778Z,16.31
2017-11-30T19:50:39.144Z,16.30
2017-11-30T19:53:05.542Z,16.29
2017-11-30T19:55:31.917Z,16.41
2017-11-30T19:57:59.232Z,16.35
2017-11-30T20:00:25.666Z,16.33
2017-11-30T20:02:52.101Z,16.35
2017-11-30T20:05:18.473Z,16.39
2017-11-30T20:07:44.866Z,16.43
2017-11-30T20:10:11.302Z,16.30
2017-11-30T20:12:37.737Z,16.43
2017-11-30T20:15:04.888Z,16.42
2017-11-30T20:17:31.322Z,16.48
2017-11-30T20:19:57.688Z,16.55
2017-11-30T20:22:24.063Z,16.53
2017-11-30T20:24:50.505Z,16.47
2017-11-30T20:27:16.958Z,16.44
2017-11-30T20:29:43.438Z,16.45
2017-11-30T20:32:10.632Z,16.50
2017-11-30T20:34:37.081Z,16.58
2017-11-30T20:37:03.516Z,16.57
2017-11-30T20:39:29.969Z,16.59
2017-11-30T20:41:56.388Z,16.80
2017-11-30T20:44:22.823Z,16.70
2017-11-30T20:46:49.256Z,16.62
2017-11-30T20:49:16.512Z,16.59
2017-11-30T20:51:42.943Z,16.69
2017-11-30T20:54:09.377Z,16.69
2017-11-30T20:56:35.709Z,16.56
2017-11-30T20:59:02.077Z,16.73
2017-11-30T21:01:28.468Z,16.80
2017-11-30T21:03:54.891Z,16.74
2017-11-30T21:06:21.997Z,16.77
2017-11-30T21:08:48.395Z,16.81
2017-11-30T21:11:14.829Z,16.75
2017-11-30T21:13:41.267Z,16.91
2017-11-30T21:16:07.701Z,16.97
2017-11-30T21:18:34.135Z,16.98
2017-11-30T21:21:00.567Z,16.84
2017-11-30T21:23:27.822Z,16.96
2017-11-30T21:25:54.263Z,16.91
2017-11-30T21:28:20.693Z,16.88
2017-11-30T21:30:47.128Z,16.87
2017-11-30T21:33:13.560Z,16.93
2017-11-30T21:35:39.994Z,16.98
2017-11-30T21:38:06.532Z,16.94
2017-11-30T21:40:33.683Z,16.98
2017-11-30T21:43:00.119Z,17.03
2017-11-30T21:45:26.450Z,17.12
2017-11-30T21:47:52.890Z,17.07
2017-11-30T21:50:19.319Z,17.15
2017-11-30T21:52:45.689Z,17.05
2017-11-30T21:55:12.085Z,17.04
2017-11-30T21:57:39.237Z,16.93
2017-11-30T22:00:05.673Z,16.91
2017-11-30T22:02:32.004Z,16.89
2017-11-30T22:04:58.374Z,16.91
2017-11-30T22:07:24.873Z,16.97
2017-11-30T22:09:51.308Z,16.95
2017-11-30T22:12:17.742Z,16.96
2017-11-30T22:14:44.894Z,17.02
2017-11-30T22:17:11.328Z,16.99
2017-11-30T22:19:37.763Z,16.86
2017-11-30T22:22:04.201Z,16.77
2017-11-30T22:24:30.678Z,16.81
2017-11-30T22:26:57.069Z,16.83
2017-11-30T22:29:23.502Z,16.87
2017-11-30T22:31:50.640Z,16.81
2017-11-30T22:34:17.087Z,16.84
2017-11-30T22:36:43.522Z,16.86
2017-11-30T22:39:09.956Z,16.73
2017-11-30T22:41:36.390Z,16.69
2017-11-30T22:44:02.827Z,16.64
2017-11-30T22:46:29.282Z,16.57
2017-11-30T22:48:56.387Z,16.65
2017-11-30T22:51:22.829Z,16.43
2017-11-30T22:53:49.325Z,16.61
2017-11-30T22:56:15.734Z,16.59
2017-11-30T22:58:42.085Z,16.55
2017-11-30T23:01:08.482Z,16.51
2017-11-30T23:03:34.918Z,16.65
2017-11-30T23:06:02.069Z,16.62
2017-11-30T23:08:28.503Z,16.65
2017-11-30T23:10:54.937Z,16.66
2017-11-30T23:13:21.265Z,16.77
2017-11-30T23:15:47.705Z,16.73
2017-11-30T23:18:14.140Z,16.61
2017-11-30T23:20:40.592Z,16.71
2017-11-30T23:23:07.706Z,16.72
2017-11-30T23:25:34.160Z,16.65
2017-11-30T23:28:00.530Z,16.69
2017-11-30T23:30:26.927Z,16.76
2017-11-30T23:32:53.361Z,16.73
2017-11-30T23:35:19.694Z,16.78
2017-11-30T23:37:46.127Z,16.83
2017-11-30T23:40:13.278Z,16.86
2017-11-30T23:42:39.697Z,16.81
2017-11-30T23:45:06.148Z,16.90
2017-11-30T23:47:32.520Z,16.91
2017-11-30T23:49:58.915Z,16.84
2017-11-30T23:52:25.281Z,16.80
2017-11-30T23:54:51.682Z,16.85
2017-11-30T23:57:18.836Z,16.81
2017-11-30T23:59:45.202Z,16.84
